sensor_id;sensor_type;location;lat;lon;timestamp;P1;durP1;ratioP1;P2;durP2;ratioP2
58528;SDS011;44322;52.968;5.816;2024-01-15T00:00:06;12.63;;;2.58;;
58528;SDS011;44322;52.968;5.816;2024-01-15T00:02:36;11.52;;;2.80;;
58528;SDS011;44322;52.968;5.816;2024-01-15T00:05:01;10.00;;;2.40;;
58528;SDS011;44322;52.968;5.816;2024-01-15T00:07:27;10.75;;;2.15;;
58528;SDS011;44322;52.968;5.816;2024-01-15T00:09:53;11.85;;;2.65;;
58528;SDS011;44322;52.968;5.816;2024-01-15T00:12:18;15.93;;;2.95;;
58528;SDS011;44322;52.968;5.816;2024-01-15T00:14:44;14.00;;;3.05;;
58528;SDS011;44322;52.968;5.816;2024-01-15T00:17:09;12.27;;;2.80;;
58528;SDS011;44322;52.968;5.816;2024-01-15T00:19:35;15.52;;;3.22;;
58528;SDS011;44322;52.968;5.816;2024-01-15T00:22:01;13.02;;;2.78;;
58528;SDS011;44322;52.968;5.816;2024-01-15T00:24:26;15.05;;;2.90;;
58528;SDS011;44322;52.968;5.816;2024-01-15T00:26:52;15.82;;;2.70;;
58528;SDS011;44322;52.968;5.816;2024-01-15T00:29:18;15.38;;;3.13;;
58528;SDS011;44322;52.968;5.816;2024-01-15T00:31:44;13.32;;;3.40;;
58528;SDS011;44322;52.968;5.816;2024-01-15T00:34:10;16.08;;;3.20;;
58528;SDS011;44322;52.968;5.816;2024-01-15T00:36:35;15.13;;;3.28;;
58528;SDS011;44322;52.968;5.816;2024-01-15T00:39:01;13.82;;;3.00;;
58528;SDS011;44322;52.968;5.816;2024-01-15T00:41:27;16.88;;;3.03;;
58528;SDS011;44322;52.968;5.816;2024-01-15T00:43:53;16.13;;;3.10;;
58528;SDS011;44322;52.968;5.816;2024-01-15T00:46:18;15.10;;;3.15;;
58528;SDS011;44322;52.968;5.816;2024-01-15T00:48:44;18.13;;;3.40;;
58528;SDS011;44322;52.968;5.816;2024-01-15T00:51:10;16.02;;;3.53;;
58528;SDS011;44322;52.968;5.816;2024-01-15T00:53:35;16.08;;;3.13;;
58528;SDS011;44322;52.968;5.816;2024-01-15T00:56:02;18.73;;;3.28;;
58528;SDS011;44322;52.968;5.816;2024-01-15T00:58:28;14.25;;;2.40;;
58528;SDS011;44322;52.968;5.816;2024-01-15T01:00:54;14.45;;;2.90;;
58528;SDS011;44322;52.968;5.816;2024-01-15T01:03:20;14.45;;;2.58;;
58528;SDS011;44322;52.968;5.816;2024-01-15T01:05:48;10.93;;;2.72;;
58528;SDS011;44322;52.968;5.816;2024-01-15T01:08:14;13.95;;;2.83;;
58528;SDS011;44322;52.968;5.816;2024-01-15T01:10:39;18.50;;;2.85;;
58528;SDS011;44322;52.968;5.816;2024-01-15T01:13:05;25.52;;;4.32;;
58528;SDS011;44322;52.968;5.816;2024-01-15T01:15:31;15.57;;;3.63;;
58528;SDS011;44322;52.968;5.816;2024-01-15T01:17:56;9.57;;;1.88;;
58528;SDS011;44322;52.968;5.816;2024-01-15T01:20:22;5.40;;;1.40;;
58528;SDS011;44322;52.968;5.816;2024-01-15T01:22:47;6.20;;;1.10;;
58528;SDS011;44322;52.968;5.816;2024-01-15T01:25:13;5.82;;;1.20;;
58528;SDS011;44322;52.968;5.816;2024-01-15T01:27:39;8.90;;;1.38;;
58528;SDS011;44322;52.968;5.816;2024-01-15T01:30:04;6.13;;;1.30;;
58528;SDS011;44322;52.968;5.816;2024-01-15T01:32:31;6.93;;;1.30;;
58528;SDS011;44322;52.968;5.816;2024-01-15T01:34:56;6.10;;;1.08;;
58528;SDS011;44322;52.968;5.816;2024-01-15T01:37:22;8.40;;;1.70;;
58528;SDS011;44322;52.968;5.816;2024-01-15T01:39:47;7.00;;;1.67;;
58528;SDS011;44322;52.968;5.816;2024-01-15T01:42:13;14.75;;;3.10;;
58528;SDS011;44322;52.968;5.816;2024-01-15T01:44:39;18.88;;;3.28;;
58528;SDS011;44322;52.968;5.816;2024-01-15T01:47:05;10.93;;;2.65;;
58528;SDS011;44322;52.968;5.816;2024-01-15T01:49:31;16.65;;;3.83;;
58528;SDS011;44322;52.968;5.816;2024-01-15T01:51:58;12.48;;;2.70;;
58528;SDS011;44322;52.968;5.816;2024-01-15T01:54:26;13.38;;;2.40;;
58528;SDS011;44322;52.968;5.816;2024-01-15T01:56:54;10.23;;;2.28;;
58528;SDS011;44322;52.968;5.816;2024-01-15T01:59:21;12.30;;;1.95;;
58528;SDS011;44322;52.968;5.816;2024-01-15T02:01:48;7.88;;;1.70;;
58528;SDS011;44322;52.968;5.816;2024-01-15T02:04:15;15.70;;;3.08;;
58528;SDS011;44322;52.968;5.816;2024-01-15T02:06:41;19.55;;;3.70;;
58528;SDS011;44322;52.968;5.816;2024-01-15T02:09:07;18.27;;;3.45;;
58528;SDS011;44322;52.968;5.816;2024-01-15T02:11:33;12.23;;;3.17;;
58528;SDS011;44322;52.968;5.816;2024-01-15T02:13:59;16.05;;;2.63;;
58528;SDS011;44322;52.968;5.816;2024-01-15T02:16:24;12.13;;;2.28;;
58528;SDS011;44322;52.968;5.816;2024-01-15T02:18:50;9.48;;;2.05;;
58528;SDS011;44322;52.968;5.816;2024-01-15T02:21:16;7.13;;;1.25;;
58528;SDS011;44322;52.968;5.816;2024-01-15T02:23:41;8.23;;;1.58;;
58528;SDS011;44322;52.968;5.816;2024-01-15T02:26:07;8.70;;;1.70;;
58528;SDS011;44322;52.968;5.816;2024-01-15T02:28:33;10.40;;;2.10;;
58528;SDS011;44322;52.968;5.816;2024-01-15T02:30:59;10.27;;;2.10;;
58528;SDS011;44322;52.968;5.816;2024-01-15T02:33:25;10.27;;;1.75;;
58528;SDS011;44322;52.968;5.816;2024-01-15T02:35:50;9.90;;;2.05;;
58528;SDS011;44322;52.968;5.816;2024-01-15T02:38:16;8.95;;;2.15;;
58528;SDS011;44322;52.968;5.816;2024-01-15T02:40:43;12.02;;;2.00;;
58528;SDS011;44322;52.968;5.816;2024-01-15T02:43:09;9.88;;;2.00;;
58528;SDS011;44322;52.968;5.816;2024-01-15T02:45:35;12.82;;;2.08;;
58528;SDS011;44322;52.968;5.816;2024-01-15T02:48:00;10.82;;;2.78;;
58528;SDS011;44322;52.968;5.816;2024-01-15T02:50:26;12.32;;;2.50;;
58528;SDS011;44322;52.968;5.816;2024-01-15T02:52:52;17.85;;;3.53;;
58528;SDS011;44322;52.968;5.816;2024-01-15T02:55:18;17.40;;;3.58;;
58528;SDS011;44322;52.968;5.816;2024-01-15T02:57:44;15.65;;;3.88;;
58528;SDS011;44322;52.968;5.816;2024-01-15T03:00:09;12.77;;;2.67;;
58528;SDS011;44322;52.968;5.816;2024-01-15T03:02:37;13.57;;;2.70;;
58528;SDS011;44322;52.968;5.816;2024-01-15T03:05:05;9.77;;;2.30;;
58528;SDS011;44322;52.968;5.816;2024-01-15T03:07:33;11.00;;;2.90;;
58528;SDS011;44322;52.968;5.816;2024-01-15T03:09:59;15.95;;;4.10;;
58528;SDS011;44322;52.968;5.816;2024-01-15T03:12:25;15.77;;;4.63;;
58528;SDS011;44322;52.968;5.816;2024-01-15T03:14:50;19.10;;;4.60;;
58528;SDS011;44322;52.968;5.816;2024-01-15T03:17:16;14.50;;;3.33;;
58528;SDS011;44322;52.968;5.816;2024-01-15T03:19:42;18.73;;;3.83;;
58528;SDS011;44322;52.968;5.816;2024-01-15T03:22:07;20.38;;;4.45;;
58528;SDS011;44322;52.968;5.816;2024-01-15T03:24:34;19.50;;;3.30;;
58528;SDS011;44322;52.968;5.816;2024-01-15T03:27:00;15.25;;;3.42;;
58528;SDS011;44322;52.968;5.816;2024-01-15T03:29:26;20.13;;;3.80;;
58528;SDS011;44322;52.968;5.816;2024-01-15T03:31:52;16.38;;;3.63;;
58528;SDS011;44322;52.968;5.816;2024-01-15T03:34:18;12.95;;;2.78;;
58528;SDS011;44322;52.968;5.816;2024-01-15T03:36:43;18.33;;;3.03;;
58528;SDS011;44322;52.968;5.816;2024-01-15T03:39:09;17.60;;;3.22;;
58528;SDS011;44322;52.968;5.816;2024-01-15T03:41:35;14.10;;;3.00;;
58528;SDS011;44322;52.968;5.816;2024-01-15T03:44:00;16.50;;;3.20;;
58528;SDS011;44322;52.968;5.816;2024-01-15T03:46:26;15.45;;;3.35;;
58528;SDS011;44322;52.968;5.816;2024-01-15T03:48:52;12.35;;;2.78;;
58528;SDS011;44322;52.968;5.816;2024-01-15T03:51:18;14.38;;;3.20;;
58528;SDS011;44322;52.968;5.816;2024-01-15T03:53:44;17.73;;;3.40;;
58528;SDS011;44322;52.968;5.816;2024-01-15T03:56:09;15.85;;;3.08;;
58528;SDS011;44322;52.968;5.816;2024-01-15T03:58:35;15.38;;;3.20;;
58528;SDS011;44322;52.968;5.816;2024-01-15T04:01:01;18.25;;;3.10;;
58528;SDS011;44322;52.968;5.816;2024-01-15T04:03:27;18.88;;;3.55;;
58528;SDS011;44322;52.968;5.816;2024-01-15T04:05:52;22.42;;;3.70;;
58528;SDS011;44322;52.968;5.816;2024-01-15T04:08:18;22.05;;;4.38;;
58528;SDS011;44322;52.968;5.816;2024-01-15T04:10:43;14.30;;;2.72;;
58528;SDS011;44322;52.968;5.816;2024-01-15T04:13:09;12.35;;;2.65;;
58528;SDS011;44322;52.968;5.816;2024-01-15T04:15:35;12.80;;;3.13;;
58528;SDS011;44322;52.968;5.816;2024-01-15T04:18:02;13.75;;;2.65;;
58528;SDS011;44322;52.968;5.816;2024-01-15T04:20:28;10.75;;;2.10;;
58528;SDS011;44322;52.968;5.816;2024-01-15T04:22:53;10.55;;;2.08;;
58528;SDS011;44322;52.968;5.816;2024-01-15T04:25:19;11.55;;;2.55;;
58528;SDS011;44322;52.968;5.816;2024-01-15T04:27:45;20.67;;;4.75;;
58528;SDS011;44322;52.968;5.816;2024-01-15T04:30:11;23.30;;;5.45;;
58528;SDS011;44322;52.968;5.816;2024-01-15T04:32:37;17.85;;;4.15;;
58528;SDS011;44322;52.968;5.816;2024-01-15T04:35:02;15.18;;;3.10;;
58528;SDS011;44322;52.968;5.816;2024-01-15T04:37:28;12.80;;;3.33;;
58528;SDS011;44322;52.968;5.816;2024-01-15T04:39:54;13.35;;;2.95;;
58528;SDS011;44322;52.968;5.816;2024-01-15T04:42:20;13.27;;;2.75;;
58528;SDS011;44322;52.968;5.816;2024-01-15T04:44:49;12.27;;;2.30;;
58528;SDS011;44322;52.968;5.816;2024-01-15T04:47:15;11.88;;;2.47;;
58528;SDS011;44322;52.968;5.816;2024-01-15T04:49:40;16.75;;;3.17;;
58528;SDS011;44322;52.968;5.816;2024-01-15T04:52:06;16.60;;;3.70;;
58528;SDS011;44322;52.968;5.816;2024-01-15T04:54:32;14.88;;;3.38;;
58528;SDS011;44322;52.968;5.816;2024-01-15T04:56:58;12.30;;;3.10;;
58528;SDS011;44322;52.968;5.816;2024-01-15T04:59:23;13.13;;;2.75;;
58528;SDS011;44322;52.968;5.816;2024-01-15T05:01:49;13.52;;;2.88;;
58528;SDS011;44322;52.968;5.816;2024-01-15T05:04:14;15.00;;;3.63;;
58528;SDS011;44322;52.968;5.816;2024-01-15T05:06:40;14.07;;;2.40;;
58528;SDS011;44322;52.968;5.816;2024-01-15T05:09:06;11.27;;;2.47;;
58528;SDS011;44322;52.968;5.816;2024-01-15T05:11:32;12.82;;;2.58;;
58528;SDS011;44322;52.968;5.816;2024-01-15T05:13:57;11.20;;;1.92;;
58528;SDS011;44322;52.968;5.816;2024-01-15T05:16:23;16.48;;;2.60;;
58528;SDS011;44322;52.968;5.816;2024-01-15T05:18:49;11.27;;;2.78;;
58528;SDS011;44322;52.968;5.816;2024-01-15T05:21:15;12.02;;;2.60;;
58528;SDS011;44322;52.968;5.816;2024-01-15T05:23:40;17.52;;;3.10;;
58528;SDS011;44322;52.968;5.816;2024-01-15T05:26:06;16.98;;;2.95;;
58528;SDS011;44322;52.968;5.816;2024-01-15T05:28:34;15.50;;;3.05;;
58528;SDS011;44322;52.968;5.816;2024-01-15T05:31:00;15.98;;;3.22;;
58528;SDS011;44322;52.968;5.816;2024-01-15T05:33:25;19.95;;;4.43;;
58528;SDS011;44322;52.968;5.816;2024-01-15T05:35:51;20.35;;;3.38;;
58528;SDS011;44322;52.968;5.816;2024-01-15T05:38:17;23.60;;;3.90;;
58528;SDS011;44322;52.968;5.816;2024-01-15T05:40:42;17.83;;;4.07;;
58528;SDS011;44322;52.968;5.816;2024-01-15T05:43:08;14.43;;;3.28;;
58528;SDS011;44322;52.968;5.816;2024-01-15T05:45:34;14.32;;;2.92;;
58528;SDS011;44322;52.968;5.816;2024-01-15T05:48:03;15.65;;;3.85;;
58528;SDS011;44322;52.968;5.816;2024-01-15T05:50:29;20.35;;;4.93;;
58528;SDS011;44322;52.968;5.816;2024-01-15T05:52:55;19.33;;;4.72;;
58528;SDS011;44322;52.968;5.816;2024-01-15T05:55:20;17.08;;;3.38;;
58528;SDS011;44322;52.968;5.816;2024-01-15T05:57:46;15.43;;;3.03;;
58528;SDS011;44322;52.968;5.816;2024-01-15T06:00:12;18.38;;;3.58;;
58528;SDS011;44322;52.968;5.816;2024-01-15T06:02:38;21.63;;;3.25;;
58528;SDS011;44322;52.968;5.816;2024-01-15T06:05:04;16.75;;;2.95;;
58528;SDS011;44322;52.968;5.816;2024-01-15T06:07:31;15.00;;;3.30;;
58528;SDS011;44322;52.968;5.816;2024-01-15T06:09:58;13.97;;;4.13;;
58528;SDS011;44322;52.968;5.816;2024-01-15T06:12:24;14.57;;;3.35;;
58528;SDS011;44322;52.968;5.816;2024-01-15T06:14:50;11.32;;;2.40;;
58528;SDS011;44322;52.968;5.816;2024-01-15T06:17:16;12.25;;;2.80;;
58528;SDS011;44322;52.968;5.816;2024-01-15T06:19:41;8.98;;;2.10;;
58528;SDS011;44322;52.968;5.816;2024-01-15T06:22:07;12.55;;;2.53;;
58528;SDS011;44322;52.968;5.816;2024-01-15T06:24:35;13.90;;;2.70;;
58528;SDS011;44322;52.968;5.816;2024-01-15T06:27:00;14.00;;;2.75;;
58528;SDS011;44322;52.968;5.816;2024-01-15T06:29:27;13.35;;;3.03;;
58528;SDS011;44322;52.968;5.816;2024-01-15T06:31:53;17.08;;;3.42;;
58528;SDS011;44322;52.968;5.816;2024-01-15T06:34:19;16.60;;;3.65;;
58528;SDS011;44322;52.968;5.816;2024-01-15T06:36:45;15.85;;;2.95;;
58528;SDS011;44322;52.968;5.816;2024-01-15T06:39:10;17.33;;;3.15;;
58528;SDS011;44322;52.968;5.816;2024-01-15T06:41:36;16.63;;;4.32;;
58528;SDS011;44322;52.968;5.816;2024-01-15T06:44:11;17.60;;;4.00;;
58528;SDS011;44322;52.968;5.816;2024-01-15T06:46:44;16.63;;;3.25;;
58528;SDS011;44322;52.968;5.816;2024-01-15T06:49:10;12.95;;;3.20;;
58528;SDS011;44322;52.968;5.816;2024-01-15T06:51:37;14.88;;;3.38;;
58528;SDS011;44322;52.968;5.816;2024-01-15T06:54:03;14.55;;;3.38;;
58528;SDS011;44322;52.968;5.816;2024-01-15T06:56:29;14.45;;;2.75;;
58528;SDS011;44322;52.968;5.816;2024-01-15T06:58:54;10.10;;;2.58;;
58528;SDS011;44322;52.968;5.816;2024-01-15T07:01:20;11.10;;;2.67;;
58528;SDS011;44322;52.968;5.816;2024-01-15T07:03:46;10.10;;;3.00;;
58528;SDS011;44322;52.968;5.816;2024-01-15T07:06:12;11.25;;;2.33;;
58528;SDS011;44322;52.968;5.816;2024-01-15T07:08:40;8.30;;;2.13;;
58528;SDS011;44322;52.968;5.816;2024-01-15T07:11:06;10.73;;;2.67;;
58528;SDS011;44322;52.968;5.816;2024-01-15T07:13:32;10.38;;;1.83;;
58528;SDS011;44322;52.968;5.816;2024-01-15T07:15:59;12.23;;;2.80;;
58528;SDS011;44322;52.968;5.816;2024-01-15T07:18:25;13.13;;;2.33;;
58528;SDS011;44322;52.968;5.816;2024-01-15T07:20:51;9.98;;;2.70;;
58528;SDS011;44322;52.968;5.816;2024-01-15T07:23:16;11.00;;;2.40;;
58528;SDS011;44322;52.968;5.816;2024-01-15T07:25:42;10.27;;;2.08;;
58528;SDS011;44322;52.968;5.816;2024-01-15T07:28:08;15.30;;;2.42;;
58528;SDS011;44322;52.968;5.816;2024-01-15T07:30:34;9.85;;;2.28;;
58528;SDS011;44322;52.968;5.816;2024-01-15T07:33:00;13.63;;;3.38;;
58528;SDS011;44322;52.968;5.816;2024-01-15T07:35:26;13.88;;;2.92;;
58528;SDS011;44322;52.968;5.816;2024-01-15T07:37:51;18.42;;;2.58;;
58528;SDS011;44322;52.968;5.816;2024-01-15T07:40:17;15.98;;;3.13;;
58528;SDS011;44322;52.968;5.816;2024-01-15T07:42:43;13.68;;;2.97;;
58528;SDS011;44322;52.968;5.816;2024-01-15T07:45:10;14.90;;;3.20;;
58528;SDS011;44322;52.968;5.816;2024-01-15T07:47:36;14.68;;;3.15;;
58528;SDS011;44322;52.968;5.816;2024-01-15T07:50:05;14.20;;;3.00;;
58528;SDS011;44322;52.968;5.816;2024-01-15T07:52:31;14.52;;;3.03;;
58528;SDS011;44322;52.968;5.816;2024-01-15T07:54:57;14.95;;;2.78;;
58528;SDS011;44322;52.968;5.816;2024-01-15T07:57:25;13.45;;;3.00;;
58528;SDS011;44322;52.968;5.816;2024-01-15T07:59:50;14.38;;;4.00;;
58528;SDS011;44322;52.968;5.816;2024-01-15T08:02:17;11.65;;;2.67;;
58528;SDS011;44322;52.968;5.816;2024-01-15T08:04:52;12.98;;;2.85;;
58528;SDS011;44322;52.968;5.816;2024-01-15T08:07:18;12.15;;;2.85;;
58528;SDS011;44322;52.968;5.816;2024-01-15T08:09:44;12.88;;;2.97;;
58528;SDS011;44322;52.968;5.816;2024-01-15T08:12:09;11.95;;;2.72;;
58528;SDS011;44322;52.968;5.816;2024-01-15T08:14:35;15.32;;;4.93;;
58528;SDS011;44322;52.968;5.816;2024-01-15T08:17:01;12.45;;;3.13;;
58528;SDS011;44322;52.968;5.816;2024-01-15T08:36:35;9.70;;;2.25;;
58528;SDS011;44322;52.968;5.816;2024-01-15T08:49:05;11.63;;;2.28;;
58528;SDS011;44322;52.968;5.816;2024-01-15T09:03:24;10.85;;;3.03;;
58528;SDS011;44322;52.968;5.816;2024-01-15T09:23:30;11.55;;;2.65;;
58528;SDS011;44322;52.968;5.816;2024-01-15T09:39:44;10.60;;;1.83;;
58528;SDS011;44322;52.968;5.816;2024-01-15T09:42:12;9.50;;;2.20;;
58528;SDS011;44322;52.968;5.816;2024-01-15T09:44:58;8.38;;;2.50;;
58528;SDS011;44322;52.968;5.816;2024-01-15T09:47:33;9.27;;;1.70;;
58528;SDS011;44322;52.968;5.816;2024-01-15T09:50:12;10.30;;;2.28;;
58528;SDS011;44322;52.968;5.816;2024-01-15T10:02:50;4.93;;;1.00;;
58528;SDS011;44322;52.968;5.816;2024-01-15T10:08:56;3.58;;;1.10;;
58528;SDS011;44322;52.968;5.816;2024-01-15T10:15:25;9.55;;;1.85;;
58528;SDS011;44322;52.968;5.816;2024-01-15T10:26:00;1.42;;;0.40;;
58528;SDS011;44322;52.968;5.816;2024-01-15T10:41:22;4.18;;;1.65;;
58528;SDS011;44322;52.968;5.816;2024-01-15T10:43:47;6.72;;;1.75;;
58528;SDS011;44322;52.968;5.816;2024-01-15T10:50:48;5.65;;;1.35;;
58528;SDS011;44322;52.968;5.816;2024-01-15T10:53:21;5.25;;;1.00;;
58528;SDS011;44322;52.968;5.816;2024-01-15T11:05:23;8.00;;;2.40;;
58528;SDS011;44322;52.968;5.816;2024-01-15T11:08:38;5.63;;;1.30;;
58528;SDS011;44322;52.968;5.816;2024-01-15T11:25:13;11.43;;;2.72;;
58528;SDS011;44322;52.968;5.816;2024-01-15T11:27:40;12.45;;;2.75;;
58528;SDS011;44322;52.968;5.816;2024-01-15T11:30:08;13.80;;;2.42;;
58528;SDS011;44322;52.968;5.816;2024-01-15T11:32:36;14.73;;;2.50;;
58528;SDS011;44322;52.968;5.816;2024-01-15T11:35:02;10.68;;;2.50;;
58528;SDS011;44322;52.968;5.816;2024-01-15T11:37:29;12.80;;;2.72;;
58528;SDS011;44322;52.968;5.816;2024-01-15T11:39:56;14.52;;;3.05;;
58528;SDS011;44322;52.968;5.816;2024-01-15T11:42:45;14.10;;;2.63;;
58528;SDS011;44322;52.968;5.816;2024-01-15T11:45:11;10.80;;;2.90;;
58528;SDS011;44322;52.968;5.816;2024-01-15T11:50:25;10.95;;;2.15;;
58528;SDS011;44322;52.968;5.816;2024-01-15T11:52:59;11.25;;;2.15;;
58528;SDS011;44322;52.968;5.816;2024-01-15T11:55:27;6.85;;;1.50;;
58528;SDS011;44322;52.968;5.816;2024-01-15T11:58:08;5.55;;;1.55;;
58528;SDS011;44322;52.968;5.816;2024-01-15T12:00:35;5.82;;;1.85;;
58528;SDS011;44322;52.968;5.816;2024-01-15T12:15:15;7.95;;;1.85;;
58528;SDS011;44322;52.968;5.816;2024-01-15T12:30:49;9.43;;;2.08;;
58528;SDS011;44322;52.968;5.816;2024-01-15T12:43:29;11.20;;;2.25;;
58528;SDS011;44322;52.968;5.816;2024-01-15T12:46:07;11.05;;;2.65;;
58528;SDS011;44322;52.968;5.816;2024-01-15T12:51:25;14.73;;;2.55;;
58528;SDS011;44322;52.968;5.816;2024-01-15T12:53:51;13.50;;;2.58;;
58528;SDS011;44322;52.968;5.816;2024-01-15T12:56:17;11.70;;;2.92;;
58528;SDS011;44322;52.968;5.816;2024-01-15T12:58:43;20.85;;;4.03;;
58528;SDS011;44322;52.968;5.816;2024-01-15T13:01:09;12.45;;;2.83;;
58528;SDS011;44322;52.968;5.816;2024-01-15T13:03:35;13.77;;;3.17;;
58528;SDS011;44322;52.968;5.816;2024-01-15T13:06:01;15.25;;;3.38;;
58528;SDS011;44322;52.968;5.816;2024-01-15T13:08:26;20.20;;;3.45;;
58528;SDS011;44322;52.968;5.816;2024-01-15T13:10:55;15.13;;;3.33;;
58528;SDS011;44322;52.968;5.816;2024-01-15T13:13:22;9.52;;;2.78;;
58528;SDS011;44322;52.968;5.816;2024-01-15T13:15:47;15.13;;;2.83;;
58528;SDS011;44322;52.968;5.816;2024-01-15T13:18:13;12.13;;;3.22;;
58528;SDS011;44322;52.968;5.816;2024-01-15T13:24:28;10.80;;;2.45;;
58528;SDS011;44322;52.968;5.816;2024-01-15T13:27:24;10.90;;;2.72;;
58528;SDS011;44322;52.968;5.816;2024-01-15T13:35:35;10.73;;;3.50;;
58528;SDS011;44322;52.968;5.816;2024-01-15T13:49:06;14.88;;;3.55;;
58528;SDS011;44322;52.968;5.816;2024-01-15T13:51:33;10.77;;;2.83;;
58528;SDS011;44322;52.968;5.816;2024-01-15T13:54:10;13.73;;;3.10;;
58528;SDS011;44322;52.968;5.816;2024-01-15T13:59:43;12.05;;;2.40;;
58528;SDS011;44322;52.968;5.816;2024-01-15T14:05:32;9.43;;;2.67;;
58528;SDS011;44322;52.968;5.816;2024-01-15T14:08:04;11.27;;;2.13;;
58528;SDS011;44322;52.968;5.816;2024-01-15T14:15:33;7.65;;;1.63;;
58528;SDS011;44322;52.968;5.816;2024-01-15T14:18:36;5.38;;;1.50;;
58528;SDS011;44322;52.968;5.816;2024-01-15T14:21:08;5.25;;;1.63;;
58528;SDS011;44322;52.968;5.816;2024-01-15T14:23:41;4.82;;;1.45;;
58528;SDS011;44322;52.968;5.816;2024-01-15T14:26:12;6.60;;;1.30;;
58528;SDS011;44322;52.968;5.816;2024-01-15T14:28:50;7.88;;;1.50;;
58528;SDS011;44322;52.968;5.816;2024-01-15T14:31:19;7.95;;;1.92;;
58528;SDS011;44322;52.968;5.816;2024-01-15T14:41:42;9.18;;;2.13;;
58528;SDS011;44322;52.968;5.816;2024-01-15T14:44:10;8.85;;;2.58;;
58528;SDS011;44322;52.968;5.816;2024-01-15T14:46:48;10.20;;;2.60;;
58528;SDS011;44322;52.968;5.816;2024-01-15T14:49:14;8.85;;;2.50;;
58528;SDS011;44322;52.968;5.816;2024-01-15T14:51:46;14.50;;;3.53;;
58528;SDS011;44322;52.968;5.816;2024-01-15T14:54:46;9.60;;;2.38;;
58528;SDS011;44322;52.968;5.816;2024-01-15T14:57:13;11.73;;;2.67;;
58528;SDS011;44322;52.968;5.816;2024-01-15T14:59:42;11.75;;;2.85;;
58528;SDS011;44322;52.968;5.816;2024-01-15T15:02:15;11.55;;;2.97;;
58528;SDS011;44322;52.968;5.816;2024-01-15T15:04:46;12.55;;;2.30;;
58528;SDS011;44322;52.968;5.816;2024-01-15T15:07:12;5.80;;;1.50;;
58528;SDS011;44322;52.968;5.816;2024-01-15T15:09:38;8.55;;;2.30;;
58528;SDS011;44322;52.968;5.816;2024-01-15T15:12:25;4.68;;;1.45;;
58528;SDS011;44322;52.968;5.816;2024-01-15T15:14:54;5.63;;;2.00;;
58528;SDS011;44322;52.968;5.816;2024-01-15T15:17:26;2.97;;;1.00;;
58528;SDS011;44322;52.968;5.816;2024-01-15T15:19:53;2.67;;;1.30;;
58528;SDS011;44322;52.968;5.816;2024-01-15T15:22:19;6.80;;;2.13;;
58528;SDS011;44322;52.968;5.816;2024-01-15T15:24:51;9.23;;;1.90;;
58528;SDS011;44322;52.968;5.816;2024-01-15T15:27:27;8.93;;;2.20;;
58528;SDS011;44322;52.968;5.816;2024-01-15T15:29:54;12.35;;;2.97;;
58528;SDS011;44322;52.968;5.816;2024-01-15T15:32:37;16.33;;;3.65;;
58528;SDS011;44322;52.968;5.816;2024-01-15T15:53:25;9.95;;;1.90;;
58528;SDS011;44322;52.968;5.816;2024-01-15T15:56:38;6.93;;;1.50;;
58528;SDS011;44322;52.968;5.816;2024-01-15T16:15:58;6.00;;;1.85;;
58528;SDS011;44322;52.968;5.816;2024-01-15T16:19:18;6.15;;;2.40;;
58528;SDS011;44322;52.968;5.816;2024-01-15T16:30:06;9.93;;;3.95;;
58528;SDS011;44322;52.968;5.816;2024-01-15T16:36:24;6.07;;;2.25;;
58528;SDS011;44322;52.968;5.816;2024-01-15T16:39:48;5.72;;;2.40;;
58528;SDS011;44322;52.968;5.816;2024-01-15T16:42:53;5.10;;;1.50;;
58528;SDS011;44322;52.968;5.816;2024-01-15T16:45:26;3.45;;;1.30;;
58528;SDS011;44322;52.968;5.816;2024-01-15T16:48:08;5.75;;;1.65;;
58528;SDS011;44322;52.968;5.816;2024-01-15T16:51:02;8.48;;;2.20;;
58528;SDS011;44322;52.968;5.816;2024-01-15T16:56:26;9.60;;;3.80;;
58528;SDS011;44322;52.968;5.816;2024-01-15T16:58:51;18.15;;;6.95;;
58528;SDS011;44322;52.968;5.816;2024-01-15T17:01:17;17.92;;;8.07;;
58528;SDS011;44322;52.968;5.816;2024-01-15T17:03:42;11.75;;;4.85;;
58528;SDS011;44322;52.968;5.816;2024-01-15T17:06:08;13.68;;;5.60;;
58528;SDS011;44322;52.968;5.816;2024-01-15T17:08:34;12.65;;;4.10;;
58528;SDS011;44322;52.968;5.816;2024-01-15T17:10:59;9.30;;;3.83;;
58528;SDS011;44322;52.968;5.816;2024-01-15T17:13:25;6.50;;;2.70;;
58528;SDS011;44322;52.968;5.816;2024-01-15T17:15:51;11.00;;;4.10;;
58528;SDS011;44322;52.968;5.816;2024-01-15T17:26:42;11.25;;;4.72;;
58528;SDS011;44322;52.968;5.816;2024-01-15T17:29:08;15.32;;;8.07;;
58528;SDS011;44322;52.968;5.816;2024-01-15T17:32:09;8.20;;;3.35;;
58528;SDS011;44322;52.968;5.816;2024-01-15T17:35:00;5.30;;;1.60;;
58528;SDS011;44322;52.968;5.816;2024-01-15T17:37:32;5.65;;;3.63;;
58528;SDS011;44322;52.968;5.816;2024-01-15T17:40:05;4.47;;;2.60;;
58528;SDS011;44322;52.968;5.816;2024-01-15T17:42:35;4.72;;;2.38;;
58528;SDS011;44322;52.968;5.816;2024-01-15T17:45:03;7.40;;;2.58;;
58528;SDS011;44322;52.968;5.816;2024-01-15T18:00:24;9.30;;;4.50;;
58528;SDS011;44322;52.968;5.816;2024-01-15T18:04:02;7.40;;;3.00;;
58528;SDS011;44322;52.968;5.816;2024-01-15T18:13:39;12.50;;;4.80;;
58528;SDS011;44322;52.968;5.816;2024-01-15T18:28:20;8.57;;;2.97;;
58528;SDS011;44322;52.968;5.816;2024-01-15T18:31:53;8.25;;;2.78;;
58528;SDS011;44322;52.968;5.816;2024-01-15T18:34:36;10.82;;;2.40;;
58528;SDS011;44322;52.968;5.816;2024-01-15T18:37:05;9.45;;;2.25;;
58528;SDS011;44322;52.968;5.816;2024-01-15T18:40:06;10.15;;;3.72;;
58528;SDS011;44322;52.968;5.816;2024-01-15T18:42:48;7.20;;;2.38;;
58528;SDS011;44322;52.968;5.816;2024-01-15T18:52:25;4.97;;;1.70;;
58528;SDS011;44322;52.968;5.816;2024-01-15T18:54:51;4.93;;;1.80;;
58528;SDS011;44322;52.968;5.816;2024-01-15T18:57:18;6.63;;;1.77;;
58528;SDS011;44322;52.968;5.816;2024-01-15T19:08:24;7.88;;;3.30;;
58528;SDS011;44322;52.968;5.816;2024-01-15T19:11:59;12.07;;;5.75;;
58528;SDS011;44322;52.968;5.816;2024-01-15T19:14:25;7.53;;;2.30;;
58528;SDS011;44322;52.968;5.816;2024-01-15T19:17:24;6.28;;;1.90;;
58528;SDS011;44322;52.968;5.816;2024-01-15T19:19:56;7.43;;;2.10;;
58528;SDS011;44322;52.968;5.816;2024-01-15T19:22:22;7.72;;;2.55;;
58528;SDS011;44322;52.968;5.816;2024-01-15T19:24:50;7.05;;;3.15;;
58528;SDS011;44322;52.968;5.816;2024-01-15T19:27:22;12.02;;;4.72;;
58528;SDS011;44322;52.968;5.816;2024-01-15T19:42:46;10.18;;;3.90;;
58528;SDS011;44322;52.968;5.816;2024-01-15T19:45:13;12.18;;;4.53;;
58528;SDS011;44322;52.968;5.816;2024-01-15T19:47:43;14.20;;;4.03;;
58528;SDS011;44322;52.968;5.816;2024-01-15T19:50:39;11.65;;;6.07;;
58528;SDS011;44322;52.968;5.816;2024-01-15T19:53:47;10.70;;;3.72;;
58528;SDS011;44322;52.968;5.816;2024-01-15T20:03:13;9.15;;;3.78;;
58528;SDS011;44322;52.968;5.816;2024-01-15T20:12:01;9.40;;;2.97;;
58528;SDS011;44322;52.968;5.816;2024-01-15T20:15:19;9.45;;;4.25;;
58528;SDS011;44322;52.968;5.816;2024-01-15T20:17:52;7.70;;;2.22;;
58528;SDS011;44322;52.968;5.816;2024-01-15T20:21:00;5.18;;;2.63;;
58528;SDS011;44322;52.968;5.816;2024-01-15T20:30:20;5.53;;;1.70;;
58528;SDS011;44322;52.968;5.816;2024-01-15T20:36:37;5.13;;;2.08;;
58528;SDS011;44322;52.968;5.816;2024-01-15T20:46:34;4.07;;;1.80;;
58528;SDS011;44322;52.968;5.816;2024-01-15T20:49:00;5.90;;;1.67;;
58528;SDS011;44322;52.968;5.816;2024-01-15T20:51:26;8.75;;;2.70;;
58528;SDS011;44322;52.968;5.816;2024-01-15T20:53:52;19.25;;;8.50;;
58528;SDS011;44322;52.968;5.816;2024-01-15T20:56:18;15.80;;;6.72;;
58528;SDS011;44322;52.968;5.816;2024-01-15T20:58:44;14.38;;;7.40;;
58528;SDS011;44322;52.968;5.816;2024-01-15T21:01:10;17.45;;;9.50;;